Time;durP1;ratioP1;P1;durP2;ratioP2;P2;SDS_P1;SDS_P2;PMS_P1;PMS_P2;Temp;Humidity;BMP_temperature;BMP_pressure;BME280_temperature;BME280_humidity;BME280_pressure;Samples;Min_cycle;Max_cycle;Signal;HPM_P1;HPM_P2
2021/06/01 00:01:31;;;;;;;5.50;5.00;;;16.20;99.90;;;;;;5029568;28;20211;-76
2021/06/01 00:03:57;;;;;;;4.88;4.47;;;16.10;99.90;;;;;;5029278;28;20022;-76
2021/06/01 00:06:24;;;;;;;5.18;4.68;;;16.10;99.90;;;;;;5030201;28;20022;-78
2021/06/01 00:08:49;;;;;;;5.95;4.68;;;16.10;99.90;;;;;;5012121;28;20538;-77
2021/06/01 00:11:16;;;;;;;4.88;4.47;;;16.00;99.90;;;;;;5029586;28;20124;-77
2021/06/01 00:13:42;;;;;;;4.13;3.83;;;16.00;99.90;;;;;;5028534;28;20087;-76
2021/06/01 00:16:09;;;;;;;5.90;5.30;;;15.90;99.90;;;;;;5017334;28;20036;-76
2021/06/01 00:18:36;;;;;;;9.50;4.57;;;15.90;99.90;;;;;;5024469;28;20522;-77
2021/06/01 00:21:02;;;;;;;7.00;5.28;;;15.90;99.90;;;;;;5028964;28;20095;-77
2021/06/01 00:23:28;;;;;;;5.03;4.60;;;15.90;99.90;;;;;;5029953;28;20430;-77
2021/06/01 00:25:54;;;;;;;4.95;3.90;;;15.80;99.90;;;;;;5028958;28;20014;-77
2021/06/01 00:28:20;;;;;;;4.80;4.22;;;15.80;99.90;;;;;;5010284;28;20386;-77
2021/06/01 00:30:46;;;;;;;6.07;4.75;;;15.90;99.90;;;;;;5029737;28;20029;-77
2021/06/01 00:33:12;;;;;;;4.22;3.88;;;16.00;99.90;;;;;;5029616;28;20029;-77
2021/06/01 00:35:38;;;;;;;6.22;5.22;;;16.10;99.90;;;;;;5029992;28;20064;-77
2021/06/01 00:38:07;;;;;;;4.32;3.92;;;16.10;99.90;;;;;;5029538;28;20025;-77
2021/06/01 00:40:33;;;;;;;8.73;4.45;;;16.10;99.90;;;;;;5029485;28;20483;-77
2021/06/01 00:42:59;;;;;;;7.15;5.38;;;16.00;99.90;;;;;;5028468;28;20463;-76
2021/06/01 00:45:26;;;;;;;8.52;4.53;;;16.00;99.90;;;;;;5028057;28;20025;-76
2021/06/01 00:47:53;;;;;;;4.50;4.03;;;16.00;99.90;;;;;;5032679;28;20017;-76
2021/06/01 00:50:26;;;;;;;6.97;4.28;;;16.00;99.90;;;;;;5034097;28;20052;-76
2021/06/01 00:52:54;;;;;;;7.15;4.38;;;16.10;99.90;;;;;;5034062;28;20053;-76
2021/06/01 00:55:20;;;;;;;6.13;4.35;;;16.10;99.90;;;;;;5029617;28;20037;-76
2021/06/01 00:57:46;;;;;;;6.32;4.45;;;16.10;99.90;;;;;;5016314;28;20048;-77
2021/06/01 01:00:36;;;;;;;5.88;5.07;;;16.10;99.90;;;;;;5034643;28;20037;-76
2021/06/01 01:03:02;;;;;;;5.60;5.10;;;16.20;99.90;;;;;;5031063;28;20084;-76
2021/06/01 01:05:38;;;;;;;4.63;4.22;;;16.10;99.90;;;;;;5034144;28;20036;-76
2021/06/01 01:11:23;;;;;;;5.28;4.80;;;16.10;99.90;;;;;;5032150;28;20037;-76
2021/06/01 01:13:57;;;;;;;6.13;4.78;;;16.10;99.90;;;;;;5011756;28;20108;-76
2021/06/01 01:16:26;;;;;;;6.88;4.80;;;16.10;99.90;;;;;;5033139;28;20060;-76
2021/06/01 01:19:24;;;;;;;4.45;4.03;;;16.20;99.90;;;;;;5030368;28;20155;-76
2021/06/01 01:21:52;;;;;;;6.50;4.88;;;16.20;99.90;;;;;;5009142;28;20125;-76
2021/06/01 01:24:24;;;;;;;5.07;4.45;;;16.20;99.90;;;;;;5009070;28;20124;-76
2021/06/01 01:26:59;;;;;;;4.75;4.07;;;16.30;99.90;;;;;;5029802;28;20071;-76
2021/06/01 01:29:36;;;;;;;6.55;3.85;;;16.40;99.90;;;;;;5032460;28;20274;-77
2021/06/01 01:32:05;;;;;;;4.75;4.35;;;16.50;99.90;;;;;;5031850;28;20099;-77
2021/06/01 01:34:33;;;;;;;7.40;4.22;;;16.50;99.90;;;;;;5033148;28;20033;-78
2021/06/01 01:37:00;;;;;;;5.40;4.95;;;16.50;99.90;;;;;;5032917;28;20033;-76
2021/06/01 01:39:30;;;;;;;4.43;3.97;;;16.50;99.90;;;;;;5032962;28;20030;-77
2021/06/01 01:41:56;;;;;;;6.00;4.60;;;16.60;99.90;;;;;;5031844;28;20033;-77
2021/06/01 01:44:25;;;;;;;4.22;3.85;;;16.70;99.90;;;;;;5031926;28;20028;-75
2021/06/01 01:47:03;;;;;;;5.50;3.88;;;16.60;99.90;;;;;;5030231;28;20052;-77
2021/06/01 01:49:29;;;;;;;4.35;3.88;;;16.60;99.90;;;;;;5013203;28;20028;-78
2021/06/01 01:51:59;;;;;;;6.28;3.75;;;16.70;99.90;;;;;;5028135;28;20025;-77
2021/06/01 01:54:29;;;;;;;4.22;3.45;;;16.50;99.90;;;;;;5034080;28;20064;-77
2021/06/01 01:56:57;;;;;;;7.70;4.15;;;16.30;99.90;;;;;;5033121;28;20100;-75
2021/06/01 01:59:29;;;;;;;4.32;3.92;;;16.20;99.90;;;;;;5033754;28;20031;-76
2021/06/01 02:01:55;;;;;;;5.03;4.35;;;16.20;99.90;;;;;;5033233;28;20060;-76
2021/06/01 02:04:23;;;;;;;4.53;4.13;;;16.10;99.90;;;;;;5034580;28;20025;-75
2021/06/01 02:06:50;;;;;;;6.28;4.38;;;16.20;99.90;;;;;;5029463;28;20164;-76
2021/06/01 02:09:17;;;;;;;4.68;4.03;;;16.20;99.90;;;;;;5032363;28;20120;-75
2021/06/01 02:11:43;;;;;;;5.70;4.07;;;16.20;99.90;;;;;;5032522;28;20487;-77
2021/06/01 02:14:09;;;;;;;4.60;4.20;;;16.20;99.90;;;;;;5030520;28;20074;-76
2021/06/01 02:16:37;;;;;;;4.13;3.58;;;16.20;99.90;;;;;;5027603;28;20081;-76
2021/06/01 02:19:08;;;;;;;3.60;3.22;;;16.20;99.90;;;;;;5031437;28;20656;-77
2021/06/01 02:24:16;;;;;;;4.03;3.63;;;16.30;99.90;;;;;;5029101;28;20029;-76
2021/06/01 02:26:51;;;;;;;4.00;3.60;;;16.30;99.90;;;;;;5025640;28;20029;-76
2021/06/01 02:29:41;;;;;;;5.28;3.22;;;16.30;99.90;;;;;;5029610;28;20026;-77
2021/06/01 02:32:09;;;;;;;7.03;5.88;;;16.10;99.90;;;;;;4993534;28;20049;-77
2021/06/01 02:34:39;;;;;;;7.65;3.95;;;16.00;99.90;;;;;;5031028;28;20107;-77
2021/06/01 02:37:07;;;;;;;3.63;3.33;;;16.00;99.90;;;;;;5030975;28;20025;-77
2021/06/01 02:39:34;;;;;;;6.07;3.78;;;16.10;99.90;;;;;;5031917;28;20017;-77
2021/06/01 02:42:02;;;;;;;3.85;3.53;;;16.10;99.90;;;;;;5032023;28;20025;-76
2021/06/01 02:44:29;;;;;;;5.50;3.97;;;16.20;99.90;;;;;;5030646;28;20025;-77
2021/06/01 02:46:55;;;;;;;4.65;3.42;;;16.20;99.90;;;;;;5029237;28;20087;-76
2021/06/01 02:49:21;;;;;;;4.07;3.72;;;16.20;99.90;;;;;;5030693;28;20140;-76
2021/06/01 02:51:47;;;;;;;4.50;3.35;;;16.20;99.90;;;;;;5031405;28;20542;-76
2021/06/01 02:54:13;;;;;;;3.38;2.60;;;16.30;99.90;;;;;;5031012;28;20029;-77
2021/06/01 02:56:39;;;;;;;3.15;2.92;;;16.30;99.90;;;;;;5028353;28;20550;-76
2021/06/01 02:59:07;;;;;;;3.78;3.47;;;16.40;99.90;;;;;;5030644;28;20075;-76
2021/06/01 03:01:35;;;;;;;3.08;2.78;;;16.40;99.90;;;;;;5025481;28;20045;-76
2021/06/01 03:04:01;;;;;;;4.30;3.88;;;16.50;99.90;;;;;;5028908;28;20083;-77
2021/06/01 03:06:29;;;;;;;3.50;3.25;;;16.50;99.90;;;;;;5030541;28;20101;-76
2021/06/01 03:08:55;;;;;;;5.05;3.50;;;16.40;99.90;;;;;;5030205;28;20053;-76
2021/06/01 03:11:22;;;;;;;3.72;3.42;;;16.40;99.90;;;;;;5030470;28;20026;-76
2021/06/01 03:13:50;;;;;;;5.28;3.58;;;16.30;99.90;;;;;;5029294;28;20029;-76
2021/06/01 03:16:17;;;;;;;4.20;3.25;;;16.30;99.90;;;;;;5029527;28;20022;-76
2021/06/01 03:18:43;;;;;;;3.15;2.80;;;16.30;99.90;;;;;;5025437;28;20021;-76
2021/06/01 03:21:10;;;;;;;7.88;3.70;;;16.30;99.90;;;;;;5022694;28;20033;-76
2021/06/01 03:23:36;;;;;;;4.95;3.60;;;16.40;99.90;;;;;;5026504;28;20018;-76
2021/06/01 03:26:05;;;;;;;3.95;3.63;;;16.40;99.90;;;;;;5030509;28;20112;-77
2021/06/01 03:28:31;;;;;;;3.45;3.15;;;16.40;99.90;;;;;;5030008;28;20601;-77
2021/06/01 03:30:57;;;;;;;9.43;4.43;;;16.40;99.90;;;;;;5030794;28;20018;-76
2021/06/01 03:33:23;;;;;;;4.28;3.63;;;16.50;99.90;;;;;;5026824;28;20432;-76
2021/06/01 03:35:49;;;;;;;3.40;3.10;;;16.50;99.90;;;;;;5026243;28;20038;-76
2021/06/01 03:38:15;;;;;;;4.07;3.78;;;16.50;99.90;;;;;;5029119;28;20437;-76
2021/06/01 03:40:41;;;;;;;4.25;2.72;;;16.50;99.90;;;;;;5031301;28;20039;-76
2021/06/01 03:43:08;;;;;;;3.63;3.13;;;16.40;99.90;;;;;;5030321;28;20029;-76
2021/06/01 03:45:34;;;;;;;3.42;3.17;;;16.40;99.90;;;;;;5029485;28;20032;-77
2021/06/01 03:48:01;;;;;;;4.22;3.53;;;16.40;99.90;;;;;;5028657;28;20068;-75
2021/06/01 03:50:27;;;;;;;4.13;3.72;;;16.40;99.90;;;;;;5028876;28;20483;-77
2021/06/01 03:52:53;;;;;;;3.83;3.50;;;16.40;99.90;;;;;;5030062;28;20037;-76
2021/06/01 03:55:19;;;;;;;3.80;3.50;;;16.40;99.90;;;;;;5030498;28;20022;-77
2021/06/01 03:57:49;;;;;;;4.35;3.40;;;16.40;99.90;;;;;;5030762;28;20030;-76
2021/06/01 04:00:20;;;;;;;4.15;3.47;;;16.40;99.90;;;;;;5029454;28;20021;-76
2021/06/01 04:02:45;;;;;;;6.25;3.33;;;16.50;99.90;;;;;;5029976;28;20017;-76
2021/06/01 04:05:12;;;;;;;6.47;4.75;;;16.40;99.90;;;;;;5026455;28;20028;-76
2021/06/01 04:07:37;;;;;;;8.90;4.63;;;16.30;99.90;;;;;;5026251;28;20489;-76
2021/06/01 04:10:05;;;;;;;4.05;3.72;;;16.30;99.90;;;;;;5029101;28;20037;-77
2021/06/01 04:12:31;;;;;;;3.97;3.50;;;16.30;99.90;;;;;;5029529;28;20112;-76
2021/06/01 04:14:56;;;;;;;3.97;3.67;;;16.30;99.90;;;;;;5029935;28;20083;-77
2021/06/01 04:17:22;;;;;;;3.83;3.53;;;16.30;99.90;;;;;;5026000;28;20037;-76
2021/06/01 04:19:48;;;;;;;3.85;3.55;;;16.30;99.90;;;;;;5029755;28;20025;-77
2021/06/01 04:22:14;;;;;;;4.25;3.92;;;16.40;99.90;;;;;;5026591;28;20395;-77
2021/06/01 04:24:39;;;;;;;4.70;4.18;;;16.40;99.90;;;;;;5029151;28;20096;-76
2021/06/01 04:27:06;;;;;;;3.97;3.60;;;16.30;99.90;;;;;;5028879;28;20227;-76
2021/06/01 04:29:31;;;;;;;6.80;3.85;;;16.40;99.90;;;;;;5029589;28;20079;-76
2021/06/01 04:31:57;;;;;;;8.93;4.53;;;16.40;99.90;;;;;;5023722;28;20037;-77
2021/06/01 04:34:23;;;;;;;5.20;3.60;;;16.40;99.90;;;;;;5028036;28;20030;-76
2021/06/01 04:36:48;;;;;;;5.03;4.50;;;16.50;99.90;;;;;;5028073;28;20526;-76
2021/06/01 04:39:14;;;;;;;4.18;3.78;;;16.50;99.90;;;;;;5029029;28;20467;-76
2021/06/01 04:41:40;;;;;;;4.10;3.63;;;16.60;99.90;;;;;;5029555;28;20032;-77
2021/06/01 04:44:06;;;;;;;3.75;3.10;;;16.60;99.90;;;;;;5026964;28;20108;-76
2021/06/01 04:46:33;;;;;;;6.43;4.47;;;16.60;99.90;;;;;;5010412;28;20025;-75
2021/06/01 04:48:59;;;;;;;4.38;3.78;;;16.60;99.90;;;;;;5022740;28;20029;-76
2021/06/01 04:51:25;;;;;;;5.30;4.15;;;16.60;99.90;;;;;;5022733;28;20021;-76
2021/06/01 04:53:53;;;;;;;4.45;4.13;;;16.70;99.90;;;;;;5024224;28;20108;-77
2021/06/01 04:56:20;;;;;;;11.00;3.88;;;16.70;99.90;;;;;;5025472;28;20415;-76
2021/06/01 04:58:45;;;;;;;5.68;4.82;;;16.90;99.90;;;;;;5019865;28;20411;-77
2021/06/01 05:01:11;;;;;;;6.78;6.15;;;17.00;99.90;;;;;;5012109;28;20025;-77
2021/06/01 05:03:38;;;;;;;6.10;4.10;;;17.10;99.90;;;;;;5011428;28;20029;-77
2021/06/01 05:06:04;;;;;;;5.93;3.53;;;17.20;99.90;;;;;;5030835;28;20087;-75
2021/06/01 05:08:30;;;;;;;4.78;4.20;;;17.30;99.90;;;;;;5029161;28;20132;-77
2021/06/01 05:10:55;;;;;;;5.57;4.28;;;17.40;99.90;;;;;;5029838;28;20658;-76
2021/06/01 05:13:21;;;;;;;4.20;3.80;;;17.50;99.90;;;;;;5028876;28;20034;-77
2021/06/01 05:15:49;;;;;;;4.28;3.88;;;17.50;99.90;;;;;;5028486;28;20032;-77
2021/06/01 05:18:16;;;;;;;7.25;5.15;;;17.40;99.90;;;;;;5028433;28;20084;-77
2021/06/01 05:20:42;;;;;;;5.20;3.67;;;17.40;99.90;;;;;;5001014;28;20391;-76
2021/06/01 05:23:08;;;;;;;5.68;4.05;;;17.40;99.90;;;;;;5029688;28;20025;-78
2021/06/01 05:25:34;;;;;;;4.28;3.83;;;17.30;99.90;;;;;;5028299;28;20017;-77
2021/06/01 05:28:00;;;;;;;6.20;4.18;;;17.20;99.90;;;;;;5028134;28;20036;-77
2021/06/01 05:35:31;;;;;;;4.05;3.70;;;17.50;99.90;;;;;;5032791;28;20356;-77
2021/06/01 05:37:57;;;;;;;4.20;3.67;;;17.50;99.90;;;;;;5031716;28;20057;-76
2021/06/01 05:40:23;;;;;;;7.50;3.53;;;17.70;99.90;;;;;;5032098;28;20049;-77
2021/06/01 05:42:49;;;;;;;4.95;4.47;;;17.80;99.90;;;;;;5031796;28;20018;-77
2021/06/01 05:45:15;;;;;;;6.93;4.32;;;18.00;99.90;;;;;;5033013;28;20111;-77
2021/06/01 05:47:40;;;;;;;3.38;3.15;;;18.30;99.90;;;;;;5031346;28;20033;-76
2021/06/01 05:50:07;;;;;;;8.27;3.75;;;18.40;99.90;;;;;;5031574;28;20113;-77
2021/06/01 05:52:35;;;;;;;4.75;3.92;;;18.40;99.90;;;;;;5014664;28;20108;-78
2021/06/01 05:55:03;;;;;;;6.65;3.90;;;18.30;99.90;;;;;;5028249;28;20040;-76
2021/06/01 05:57:29;;;;;;;4.00;3.70;;;18.10;99.90;;;;;;5032212;28;20146;-77
2021/06/01 05:59:55;;;;;;;6.15;3.25;;;17.90;99.90;;;;;;5031962;28;20452;-76
2021/06/01 06:02:20;;;;;;;6.60;4.40;;;17.80;99.90;;;;;;5031758;28;20538;-76
2021/06/01 06:04:46;;;;;;;8.00;6.70;;;17.90;99.90;;;;;;5032484;28;20079;-76
2021/06/01 06:07:12;;;;;;;8.15;4.90;;;18.00;99.90;;;;;;5031862;28;20067;-77
2021/06/01 06:09:37;;;;;;;22.42;3.97;;;18.20;99.90;;;;;;5033137;28;20183;-75
2021/06/01 06:12:03;;;;;;;19.40;7.70;;;18.50;99.90;;;;;;5032016;28;20092;-77
2021/06/01 06:14:29;;;;;;;11.07;5.65;;;18.70;99.90;;;;;;5032660;28;20026;-77
2021/06/01 06:16:59;;;;;;;7.53;4.63;;;19.00;99.90;;;;;;5032335;28;20025;-77
2021/06/01 06:19:25;;;;;;;5.40;4.25;;;19.20;99.90;;;;;;5032804;28;20368;-78
2021/06/01 06:21:51;;;;;;;10.40;5.03;;;19.30;99.90;;;;;;5031167;28;20021;-77
2021/06/01 06:24:16;;;;;;;6.50;4.65;;;19.40;99.90;;;;;;5031934;28;20029;-77
2021/06/01 06:26:42;;;;;;;11.63;6.00;;;19.40;99.90;;;;;;5033894;28;20017;-77
2021/06/01 06:29:08;;;;;;;5.28;3.92;;;19.30;99.90;;;;;;5032718;28;20494;-79
2021/06/01 06:31:34;;;;;;;11.13;4.47;;;19.40;99.90;;;;;;5034480;28;20040;-76
2021/06/01 06:34:00;;;;;;;18.10;11.73;;;19.30;99.90;;;;;;5031798;28;20030;-78
2021/06/01 06:36:26;;;;;;;3.95;3.13;;;19.50;99.90;;;;;;5033018;28;20025;-76
2021/06/01 06:38:52;;;;;;;15.77;7.28;;;19.70;99.90;;;;;;5014579;28;20137;-78
2021/06/01 06:41:18;;;;;;;20.58;9.25;;;19.90;99.90;;;;;;5030598;28;20025;-77
2021/06/01 06:43:50;;;;;;;7.88;4.35;;;20.00;99.90;;;;;;5031329;28;20468;-77
2021/06/01 06:46:23;;;;;;;;;;;20.10;99.90;;;;;;5029490;28;20033;-76
2021/06/01 06:48:49;;;;;;;4.15;3.83;;;20.10;99.90;;;;;;5014939;28;19905;-77
2021/06/01 06:51:15;;;;;;;9.00;4.82;;;20.30;99.90;;;;;;5031805;28;20542;-77
2021/06/01 06:53:56;;;;;;;9.18;4.32;;;20.40;99.90;;;;;;5031236;28;20025;-77
2021/06/01 06:56:25;;;;;;;8.52;4.32;;;20.60;99.90;;;;;;5014384;28;20071;-77
2021/06/01 06:58:51;;;;;;;10.88;4.95;;;20.60;99.90;;;;;;5031450;28;20498;-68
2021/06/01 07:01:17;;;;;;;6.03;5.40;;;20.70;99.90;;;;;;5037176;28;20122;-66
2021/06/01 07:03:43;;;;;;;4.22;3.42;;;20.70;99.90;;;;;;5029759;28;20013;-67
2021/06/01 07:06:09;;;;;;;4.47;3.08;;;20.70;99.90;;;;;;5030403;28;20029;-68
2021/06/01 07:08:35;;;;;;;10.10;6.38;;;20.80;99.90;;;;;;5025556;28;20029;-68
2021/06/01 07:11:02;;;;;;;11.05;4.47;;;20.70;99.90;;;;;;5026903;28;20044;-68
2021/06/01 07:13:41;;;;;;;7.10;3.90;;;20.70;99.90;;;;;;5029560;28;20386;-67
2021/06/01 07:16:07;;;;;;;4.85;4.32;;;20.80;99.90;;;;;;5012654;28;20108;-68
2021/06/01 07:18:37;;;;;;;10.13;3.95;;;21.00;99.90;;;;;;5029275;28;20112;-70
2021/06/01 07:21:02;;;;;;;4.15;3.85;;;21.00;99.90;;;;;;5026440;28;20060;-68
2021/06/01 07:23:28;;;;;;;7.97;4.30;;;21.00;99.90;;;;;;5030617;28;20099;-68
2021/06/01 07:25:54;;;;;;;6.30;4.60;;;21.00;99.90;;;;;;5029763;28;20171;-71
2021/06/01 07:28:20;;;;;;;7.90;4.28;;;21.10;99.90;;;;;;5029239;28;20033;-70
2021/06/01 07:30:46;;;;;;;5.43;3.85;;;21.20;99.90;;;;;;5029024;28;20479;-69
2021/06/01 07:33:11;;;;;;;4.10;3.63;;;21.00;99.90;;;;;;5009689;28;20029;-70
2021/06/01 07:35:37;;;;;;;3.55;3.25;;;21.00;99.90;;;;;;5026252;28;20033;-72
2021/06/01 07:38:03;;;;;;;5.00;2.92;;;21.00;99.90;;;;;;5028578;28;20021;-70
2021/06/01 07:40:29;;;;;;;6.95;3.63;;;20.60;99.90;;;;;;5029544;28;20096;-73
2021/06/01 07:42:56;;;;;;;6.25;3.40;;;20.40;99.90;;;;;;5022533;28;20581;-72
2021/06/01 07:45:24;;;;;;;5.45;3.40;;;20.40;99.90;;;;;;5031084;28;20495;-75
2021/06/01 07:47:49;;;;;;;3.47;3.17;;;20.40;99.90;;;;;;5029804;28;20021;-73
2021/06/01 07:50:15;;;;;;;5.55;3.15;;;20.50;99.90;;;;;;5029455;28;20083;-73
2021/06/01 07:52:41;;;;;;;3.72;3.42;;;20.50;99.90;;;;;;5011247;28;20029;-72
2021/06/01 07:55:07;;;;;;;4.47;3.33;;;20.50;99.90;;;;;;5030315;28;20072;-70
2021/06/01 07:57:33;;;;;;;8.10;4.05;;;20.70;99.90;;;;;;5028920;28;20057;-71
2021/06/01 07:59:59;;;;;;;7.32;3.92;;;20.70;99.90;;;;;;5029099;28;20065;-72
2021/06/01 08:02:25;;;;;;;4.53;4.13;;;20.70;99.90;;;;;;5028344;28;20024;-71
2021/06/01 08:04:52;;;;;;;5.38;3.67;;;20.60;99.90;;;;;;5011855;28;20044;-71
2021/06/01 08:07:19;;;;;;;9.00;3.63;;;20.40;99.90;;;;;;5029869;28;20118;-72
2021/06/01 08:09:45;;;;;;;4.13;3.83;;;20.20;99.90;;;;;;5029890;28;20026;-73
2021/06/01 08:12:10;;;;;;;6.15;4.00;;;20.30;99.90;;;;;;5028744;28;20027;-72
2021/06/01 08:14:36;;;;;;;8.65;4.35;;;20.40;99.90;;;;;;5029041;28;20033;-71
2021/06/01 08:17:03;;;;;;;7.57;4.15;;;20.60;99.90;;;;;;5029578;28;20036;-70
2021/06/01 08:19:33;;;;;;;3.88;3.58;;;20.50;99.90;;;;;;5028455;28;20033;-72
2021/06/01 08:24:25;;;;;;;3.80;3.50;;;20.50;99.90;;;;;;5029743;28;20026;-72
2021/06/01 08:26:51;;;;;;;4.90;4.10;;;20.50;99.90;;;;;;5029580;28;20096;-72
2021/06/01 08:29:17;;;;;;;8.75;4.47;;;20.40;99.90;;;;;;5026444;28;20029;-72
2021/06/01 08:31:46;;;;;;;3.83;3.33;;;20.40;99.90;;;;;;5028250;28;20180;-71
2021/06/01 08:34:12;;;;;;;4.30;4.00;;;20.40;99.90;;;;;;5027947;28;20475;-73
2021/06/01 08:36:39;;;;;;;4.38;3.92;;;20.40;99.90;;;;;;5029309;28;20033;-76
2021/06/01 08:39:06;;;;;;;5.72;4.22;;;20.30;99.90;;;;;;5029315;28;20542;-75
2021/06/01 08:41:33;;;;;;;7.85;4.32;;;20.10;99.90;;;;;;5011539;28;20075;-76
2021/06/01 08:44:02;;;;;;;4.75;4.32;;;20.10;99.90;;;;;;5029853;28;20028;-74
2021/06/01 08:46:28;;;;;;;7.63;3.92;;;20.20;99.90;;;;;;5028742;28;20036;-75
2021/06/01 08:48:55;;;;;;;3.95;3.55;;;20.20;99.90;;;;;;5029328;28;20079;-75
2021/06/01 08:51:22;;;;;;;5.05;4.55;;;20.30;99.90;;;;;;5027712;28;20045;-76
2021/06/01 08:53:50;;;;;;;8.90;3.90;;;20.50;99.90;;;;;;5018644;28;20071;-75
2021/06/01 08:56:16;;;;;;;5.18;4.15;;;20.60;99.90;;;;;;5029042;28;20096;-76
2021/06/01 08:58:44;;;;;;;4.70;3.85;;;20.50;99.90;;;;;;5029840;28;20036;-75
2021/06/01 09:01:10;;;;;;;6.53;4.18;;;20.50;99.90;;;;;;5029343;28;20497;-75
2021/06/01 09:03:48;;;;;;;11.38;4.57;;;20.60;99.90;;;;;;5030006;28;20013;-77
2021/06/01 09:06:28;;;;;;;9.02;3.92;;;20.40;99.90;;;;;;5028943;28;20022;-76
2021/06/01 09:20:56;;;;;;;4.35;3.63;;;20.30;99.90;;;;;;5024066;28;20110;-75
2021/06/01 09:22:32;;;;;;;6.57;4.78;;;20.40;99.90;;;;;;5025845;28;20471;-79
2021/06/01 09:25:10;;;;;;;5.88;4.15;;;20.30;99.90;;;;;;5029704;28;20029;-79
2021/06/01 09:27:48;;;;;;;4.47;3.92;;;20.50;99.90;;;;;;5025856;28;20037;-78
2021/06/01 09:30:35;;;;;;;4.68;3.70;;;20.50;99.90;;;;;;5029915;28;20028;-80
2021/06/01 09:33:02;;;;;;;4.18;3.88;;;20.50;99.90;;;;;;5032060;28;20437;-77
2021/06/01 09:35:42;;;;;;;4.00;3.70;;;20.60;99.90;;;;;;5033244;28;20017;-77
2021/06/01 09:38:08;;;;;;;5.63;3.40;;;20.30;99.90;;;;;;5024550;28;20040;-78
2021/06/01 09:40:34;;;;;;;8.68;5.00;;;20.30;99.90;;;;;;5037524;28;20070;-79
2021/06/01 09:43:00;;;;;;;4.70;3.42;;;20.50;99.90;;;;;;5033884;28;20029;-79
2021/06/01 09:45:27;;;;;;;3.85;3.45;;;20.70;99.90;;;;;;5030853;28;20029;-79
2021/06/01 09:48:07;;;;;;;4.35;3.92;;;20.70;99.90;;;;;;5031701;28;20547;-78
2021/06/01 09:55:47;;;;;;;4.45;4.15;;;20.90;99.90;;;;;;5032976;28;20071;-81
2021/06/01 09:58:23;;;;;;;4.80;4.30;;;20.70;99.90;;;;;;5031607;28;20395;-78
2021/06/01 10:00:49;;;;;;;5.60;4.97;;;20.60;99.90;;;;;;5029186;28;20534;-78
2021/06/01 10:03:25;;;;;;;4.72;4.32;;;20.50;99.90;;;;;;5032293;28;20105;-78
2021/06/01 10:05:55;;;;;;;9.18;4.30;;;20.50;99.90;;;;;;5020323;28;20021;-78
2021/06/01 10:08:27;;;;;;;4.45;4.00;;;20.60;99.90;;;;;;5032154;28;20063;-76
2021/06/01 10:10:56;;;;;;;5.63;4.78;;;20.40;99.90;;;;;;5031622;28;20105;-73
2021/06/01 10:13:24;;;;;;;4.82;4.35;;;20.10;99.90;;;;;;5025899;28;20028;-72
2021/06/01 10:15:53;;;;;;;7.38;4.85;;;20.00;99.90;;;;;;5030190;28;20018;-72
2021/06/01 10:18:19;;;;;;;8.75;5.07;;;20.10;99.90;;;;;;5032717;28;20479;-73
2021/06/01 10:20:47;;;;;;;5.60;4.72;;;20.20;99.90;;;;;;5032143;28;20025;-73
2021/06/01 10:23:17;;;;;;;3.88;3.67;;;20.20;99.90;;;;;;5029803;28;20543;-75
2021/06/01 10:25:43;;;;;;;5.05;4.45;;;20.30;99.90;;;;;;5033151;28;20546;-74
2021/06/01 10:28:10;;;;;;;5.55;5.03;;;20.20;99.90;;;;;;5033199;28;20108;-72
2021/06/01 10:30:39;;;;;;;5.55;5.05;;;20.30;99.90;;;;;;5034335;28;20029;-72
2021/06/01 10:33:10;;;;;;;5.68;4.80;;;20.30;99.90;;;;;;5037072;28;20373;-73
2021/06/01 10:35:42;;;;;;;5.28;4.88;;;20.40;99.90;;;;;;5036944;28;20075;-73
2021/06/01 10:52:26;;;;;;;6.93;6.13;;;20.20;99.90;;;;;;5037995;28;20048;-75
2021/06/01 10:55:07;;;;;;;5.70;5.28;;;20.10;99.90;;;;;;5037042;28;20033;-76
2021/06/01 10:57:53;;;;;;;6.43;5.88;;;20.10;99.90;;;;;;5034428;28;20033;-73
2021/06/01 11:03:06;;;;;;;6.55;5.97;;;20.30;99.90;;;;;;5032415;28;20079;-73
2021/06/01 11:05:40;;;;;;;8.50;5.43;;;20.20;99.90;;;;;;5033358;28;20044;-74
2021/06/01 11:08:13;;;;;;;10.75;6.10;;;20.10;99.90;;;;;;5033509;28;20033;-74
2021/06/01 11:10:44;;;;;;;7.57;5.32;;;20.10;99.90;;;;;;5033659;28;20029;-72
2021/06/01 11:13:30;;;;;;;7.03;5.17;;;20.10;99.90;;;;;;5033857;28;20045;-73
2021/06/01 11:15:58;;;;;;;6.15;5.32;;;20.30;99.90;;;;;;5032773;28;20021;-74
2021/06/01 11:18:40;;;;;;;5.43;4.90;;;20.20;99.90;;;;;;5033403;28;20108;-72
2021/06/01 11:35:27;;;;;;;5.63;5.13;;;20.30;99.90;;;;;;5032666;28;20185;-74
2021/06/01 11:40:26;;;;;;;6.93;4.93;;;20.50;99.90;;;;;;5031450;28;20052;-75
2021/06/01 11:43:15;;;;;;;5.13;4.72;;;20.50;99.90;;;;;;5031069;28;20032;-75
2021/06/01 11:45:50;;;;;;;6.68;4.70;;;20.50;99.90;;;;;;5030978;28;20017;-73
2021/06/01 11:53:54;;;;;;;4.97;4.50;;;20.50;99.90;;;;;;5029979;28;20029;-73
2021/06/01 11:56:41;;;;;;;4.47;4.07;;;20.60;99.90;;;;;;5030474;28;20029;-74
2021/06/01 12:05:00;;;;;;;4.32;4.00;;;20.80;99.90;;;;;;5030631;28;20034;-73
2021/06/01 12:13:13;;;;;;;6.68;4.35;;;20.70;99.90;;;;;;5030542;28;20546;-76
2021/06/01 12:20:52;;;;;;;5.10;3.63;;;20.80;99.90;;;;;;5030147;28;20109;-76
2021/06/01 12:23:36;;;;;;;8.20;3.90;;;20.90;99.90;;;;;;5030379;28;20538;-76
2021/06/01 12:26:12;;;;;;;4.95;4.03;;;20.90;99.90;;;;;;5030095;28;20025;-73
2021/06/01 12:32:00;;;;;;;4.60;4.07;;;20.90;99.90;;;;;;5026146;28;20404;-73
2021/06/01 12:35:01;;;;;;;6.38;5.60;;;20.90;99.90;;;;;;5029187;28;20052;-72
2021/06/01 13:39:55;;;;;;;6.45;2.90;;;21.60;99.90;;;;;;5036165;28;20029;-75
2021/06/01 13:50:56;;;;;;;11.00;4.32;;;21.40;99.90;;;;;;5013560;28;20133;-75
2021/06/01 13:56:14;;;;;;;4.28;3.88;;;21.60;99.90;;;;;;5032514;28;20033;-74
2021/06/01 15:31:24;;;;;;;6.55;3.83;;;21.20;99.90;;;;;;5031145;28;20036;-74
2021/06/01 15:53:04;;;;;;;4.15;3.75;;;21.30;99.90;;;;;;5030794;28;20021;-77
2021/06/01 16:41:35;;;;;;;7.70;2.95;;;22.90;99.90;;;;;;5030269;28;20061;-76
2021/06/01 17:06:28;;;;;;;3.30;2.85;;;26.40;99.90;;;;;;5026220;28;20483;-73
2021/06/01 17:10:56;;;;;;;5.43;2.65;;;27.30;99.90;;;;;;5028138;28;20037;-72
2021/06/01 17:11:49;;;;;;;2.90;2.65;;;27.50;99.90;;;;;;5010277;28;20066;-70
2021/06/01 17:14:16;;;;;;;2.78;2.58;;;27.70;99.90;;;;;;5024565;28;20052;-73
2021/06/01 17:17:00;;;;;;;4.25;2.63;;;28.00;99.90;;;;;;5029554;28;20029;-73
2021/06/01 17:35:42;;;;;;;3.08;2.72;;;27.60;99.90;;;;;;5013962;28;20087;-74
2021/06/01 17:38:09;;;;;;;3.53;2.30;;;27.50;99.90;;;;;;5020320;28;20415;-71
2021/06/01 17:40:38;;;;;;;5.45;3.47;;;27.60;99.90;;;;;;5033359;28;20036;-73
2021/06/01 17:43:09;;;;;;;3.00;2.80;;;27.60;99.90;;;;;;5033262;28;20025;-74
2021/06/01 17:45:45;;;;;;;2.50;2.13;;;27.30;99.90;;;;;;5032241;28;20029;-75
2021/06/01 17:48:26;;;;;;;2.63;2.45;;;27.00;99.90;;;;;;5031955;28;20025;-75
2021/06/01 17:50:54;;;;;;;2.80;2.60;;;26.70;99.90;;;;;;5033418;28;20025;-76
2021/06/01 17:53:22;;;;;;;6.85;2.58;;;26.80;99.90;;;;;;5033346;28;20037;-74
2021/06/01 17:55:51;;;;;;;4.85;2.90;;;26.40;99.90;;;;;;5033657;28;20032;-74
2021/06/01 17:58:18;;;;;;;4.88;2.13;;;26.30;99.90;;;;;;5038951;28;20034;-75
2021/06/01 18:00:43;;;;;;;2.95;2.70;;;26.10;99.90;;;;;;5033705;28;20447;-76
2021/06/01 18:03:14;;;;;;;3.05;2.42;;;25.80;99.90;;;;;;5033591;28;20129;-73
2021/06/01 18:05:43;;;;;;;3.17;2.72;;;25.60;99.90;;;;;;5033434;28;20026;-74
2021/06/01 18:08:20;;;;;;;2.80;2.58;;;25.40;99.90;;;;;;5015012;28;20127;-75
2021/06/01 18:11:36;;;;;;;3.17;2.45;;;25.00;99.90;;;;;;5014219;28;20029;-75
2021/06/01 18:52:58;;;;;;;4.85;3.45;;;19.50;99.90;;;;;;5033159;28;20084;-73
2021/06/01 19:25:22;;;;;;;6.18;4.63;;;19.10;99.90;;;;;;5033155;28;20030;-73
2021/06/01 19:52:08;;;;;;;6.75;6.15;;;19.20;99.90;;;;;;5035782;28;20406;-77
2021/06/01 19:54:35;;;;;;;8.07;7.28;;;19.20;99.90;;;;;;5037219;28;20053;-75
2021/06/01 19:57:01;;;;;;;13.77;7.70;;;19.10;99.90;;;;;;5037390;28;20030;-76
2021/06/01 19:59:28;;;;;;;7.38;6.68;;;19.10;99.90;;;;;;5038110;28;20032;-75
2021/06/01 20:01:54;;;;;;;6.45;5.28;;;19.10;99.90;;;;;;5035980;28;20049;-75
2021/06/01 20:04:21;;;;;;;7.78;6.38;;;19.00;99.90;;;;;;5020462;28;20529;-75
2021/06/01 20:06:48;;;;;;;9.07;5.40;;;18.90;99.90;;;;;;5020600;28;20030;-75
2021/06/01 20:09:17;;;;;;;7.53;6.07;;;18.90;99.90;;;;;;5037739;28;20029;-76
2021/06/01 20:11:44;;;;;;;9.32;6.25;;;18.90;99.90;;;;;;5036891;28;20427;-76
2021/06/01 20:14:10;;;;;;;9.05;5.85;;;18.90;99.90;;;;;;5019717;28;20110;-75
2021/06/01 20:16:40;;;;;;;37.97;6.47;;;18.90;99.90;;;;;;5038440;28;20033;-75
2021/06/01 20:19:06;;;;;;;6.68;5.40;;;18.70;99.90;;;;;;5039435;28;20025;-76
2021/06/01 20:21:34;;;;;;;7.90;4.97;;;18.70;99.90;;;;;;5038836;28;20049;-76
2021/06/01 20:24:03;;;;;;;9.82;5.97;;;18.70;99.90;;;;;;5021755;28;20509;-75
2021/06/01 20:26:30;;;;;;;13.32;5.70;;;18.70;99.90;;;;;;5038765;28;20040;-75